Time;durP1;ratioP1;P1;durP2;ratioP2;P2;SDS_P1;SDS_P2;PMS_P1;PMS_P2;Temp;Humidity;BMP_temperature;BMP_pressure;BME280_temperature;BME280_humidity;BME280_pressure;Samples;Min_cycle;Max_cycle;Signal;HPM_P1;HPM_P2
2022/04/03 00:00:40;;;;;;;12.13;8.93;;;5.90;63.30;;;;;;5098265;28;20023;-72
2022/04/03 00:03:08;;;;;;;14.18;9.43;;;5.90;63.20;;;;;;5097669;28;20377;-72
2022/04/03 00:05:38;;;;;;;13.05;10.32;;;5.90;63.20;;;;;;5098127;28;20440;-73
2022/04/03 00:08:05;;;;;;;14.13;10.30;;;5.90;63.10;;;;;;5098039;28;20023;-72
2022/04/03 00:10:31;;;;;;;12.18;9.85;;;5.90;63.20;;;;;;5116106;28;20379;-71
2022/04/03 00:12:56;;;;;;;12.70;9.68;;;5.90;63.20;;;;;;5115730;28;20080;-72
2022/04/03 00:15:22;;;;;;;12.40;9.70;;;5.90;63.20;;;;;;5097684;28;20027;-71
2022/04/03 00:17:48;;;;;;;12.57;10.07;;;5.90;63.20;;;;;;5116255;28;20108;-72
2022/04/03 00:20:14;;;;;;;17.35;10.43;;;5.90;63.30;;;;;;5115893;28;20403;-73
2022/04/03 00:22:40;;;;;;;13.70;10.55;;;6.00;63.30;;;;;;5116161;28;20028;-72
2022/04/03 00:25:06;;;;;;;12.13;9.93;;;5.90;63.30;;;;;;5097754;28;20111;-72
2022/04/03 00:27:32;;;;;;;14.88;10.98;;;5.90;63.20;;;;;;5115897;28;20077;-72
2022/04/03 00:29:58;;;;;;;15.70;11.57;;;5.90;63.20;;;;;;5115843;28;20023;-72
2022/04/03 00:32:24;;;;;;;12.23;9.85;;;5.90;63.20;;;;;;5115322;28;20507;-71
2022/04/03 00:34:50;;;;;;;13.50;11.18;;;5.90;63.20;;;;;;5115578;28;20020;-72
2022/04/03 00:37:16;;;;;;;13.38;10.88;;;6.00;63.30;;;;;;5115844;28;20040;-71
2022/04/03 00:39:42;;;;;;;13.23;10.38;;;5.90;63.20;;;;;;5124801;27;20092;-71
2022/04/03 00:42:08;;;;;;;14.27;10.80;;;5.90;63.30;;;;;;5136295;27;20034;-71
2022/04/03 00:44:36;;;;;;;13.40;10.52;;;5.90;63.40;;;;;;5117913;27;20022;-72
2022/04/03 00:47:03;;;;;;;12.35;9.75;;;5.90;63.40;;;;;;5136211;27;20031;-72
2022/04/03 00:49:29;;;;;;;15.60;12.40;;;6.00;63.40;;;;;;5116848;27;20024;-72
2022/04/03 00:51:55;;;;;;;16.08;11.68;;;5.90;63.40;;;;;;5126870;27;20107;-72
2022/04/03 00:54:21;;;;;;;14.25;11.88;;;5.90;63.50;;;;;;5115581;28;20469;-72
2022/04/03 00:56:47;;;;;;;17.10;11.35;;;5.90;63.60;;;;;;5097041;28;20043;-72
2022/04/03 00:59:14;;;;;;;15.18;11.63;;;5.90;63.70;;;;;;5115426;28;20096;-72
2022/04/03 01:01:41;;;;;;;16.15;11.32;;;5.90;63.70;;;;;;5097014;28;20027;-72
2022/04/03 01:04:07;;;;;;;13.30;11.10;;;5.90;63.80;;;;;;5115085;28;20379;-71
2022/04/03 01:06:34;;;;;;;15.82;12.23;;;5.90;63.80;;;;;;5096757;28;20031;-71
2022/04/03 01:08:59;;;;;;;15.75;11.77;;;5.90;63.80;;;;;;5115000;28;20032;-71
2022/04/03 01:11:25;;;;;;;14.50;11.95;;;5.90;63.80;;;;;;5114882;28;20024;-72
2022/04/03 01:13:52;;;;;;;16.50;11.85;;;5.90;63.80;;;;;;5096687;28;20077;-71
2022/04/03 01:16:18;;;;;;;17.70;12.35;;;5.90;63.80;;;;;;5114539;28;20031;-71
2022/04/03 01:18:44;;;;;;;17.00;12.85;;;5.90;63.80;;;;;;5114864;28;20028;-72
2022/04/03 01:21:10;;;;;;;16.73;12.65;;;5.90;63.80;;;;;;5114725;28;20029;-71
2022/04/03 01:23:36;;;;;;;15.05;12.05;;;5.80;63.80;;;;;;5114390;28;20026;-71
2022/04/03 01:26:03;;;;;;;16.90;13.45;;;5.80;63.80;;;;;;5114382;28;20416;-71
2022/04/03 01:28:28;;;;;;;16.25;12.52;;;5.80;63.90;;;;;;5114408;28;20328;-70
2022/04/03 01:30:54;;;;;;;16.75;13.23;;;5.80;64.00;;;;;;5114841;28;20027;-71
2022/04/03 01:33:20;;;;;;;19.50;13.13;;;5.80;64.00;;;;;;5114622;28;20061;-71
2022/04/03 01:35:46;;;;;;;16.20;12.82;;;5.80;63.90;;;;;;5114224;28;20417;-71
2022/04/03 01:38:12;;;;;;;19.17;14.32;;;5.80;63.90;;;;;;5114505;28;20032;-71
2022/04/03 01:40:38;;;;;;;15.55;11.65;;;5.70;63.90;;;;;;5114687;28;20043;-71
2022/04/03 01:43:06;;;;;;;17.52;13.23;;;5.70;64.00;;;;;;5096074;28;20050;-71
2022/04/03 01:45:36;;;;;;;17.00;13.27;;;5.70;64.00;;;;;;5095776;28;20030;-70
2022/04/03 01:48:03;;;;;;;17.10;13.70;;;5.70;64.20;;;;;;5114317;28;20024;-71
2022/04/03 01:50:29;;;;;;;16.77;12.82;;;5.70;64.30;;;;;;5095772;28;20021;-71
2022/04/03 01:52:55;;;;;;;17.17;12.55;;;5.70;64.40;;;;;;5114156;28;20118;-70
2022/04/03 01:55:21;;;;;;;17.52;13.18;;;5.70;64.40;;;;;;5114588;28;20023;-71
2022/04/03 01:57:46;;;;;;;15.65;12.32;;;5.70;64.40;;;;;;5114092;28;20046;-71
2022/04/03 02:00:12;;;;;;;15.35;12.15;;;5.70;64.50;;;;;;5113907;28;20378;-71
2022/04/03 02:02:39;;;;;;;17.25;13.25;;;5.70;64.60;;;;;;5114073;28;20030;-71
2022/04/03 02:05:06;;;;;;;16.52;12.10;;;5.70;64.70;;;;;;5114302;28;20102;-70
2022/04/03 02:07:33;;;;;;;13.65;11.35;;;5.70;64.70;;;;;;5114724;28;20024;-71
2022/04/03 02:10:03;;;;;;;14.98;12.32;;;5.70;64.80;;;;;;5114022;28;20015;-70
2022/04/03 02:12:29;;;;;;;20.40;12.88;;;5.80;64.90;;;;;;5113440;28;20027;-70
2022/04/03 02:14:55;;;;;;;17.65;13.20;;;5.80;64.80;;;;;;5113916;28;20112;-71
2022/04/03 02:17:21;;;;;;;15.98;11.85;;;5.80;64.60;;;;;;5113819;28;20120;-70
2022/04/03 02:19:47;;;;;;;15.90;11.48;;;5.80;64.60;;;;;;5113327;28;20028;-70
2022/04/03 02:22:14;;;;;;;15.75;11.85;;;5.80;64.60;;;;;;5113617;28;20526;-70
2022/04/03 02:24:40;;;;;;;15.70;11.77;;;5.80;64.70;;;;;;5095414;28;20031;-71
2022/04/03 02:27:07;;;;;;;17.67;12.00;;;5.80;64.70;;;;;;5113646;28;20035;-71
2022/04/03 02:29:33;;;;;;;16.30;12.05;;;5.80;64.70;;;;;;5113441;28;20475;-71
2022/04/03 02:31:59;;;;;;;15.73;12.43;;;5.80;64.60;;;;;;5113302;28;20034;-71
2022/04/03 02:34:26;;;;;;;12.98;11.15;;;5.80;64.60;;;;;;5094789;28;20027;-71
2022/04/03 02:36:52;;;;;;;15.20;11.38;;;5.90;64.50;;;;;;5113903;28;20390;-70
2022/04/03 02:39:18;;;;;;;15.20;11.88;;;5.90;64.30;;;;;;5113603;28;20050;-71
2022/04/03 02:41:44;;;;;;;15.63;11.90;;;5.80;64.20;;;;;;5113361;28;20041;-71
2022/04/03 02:44:10;;;;;;;14.88;11.40;;;5.80;64.00;;;;;;5095198;28;20027;-71
2022/04/03 02:46:36;;;;;;;17.42;11.68;;;5.80;64.00;;;;;;5113361;28;20032;-71
2022/04/03 02:49:02;;;;;;;15.77;11.82;;;5.80;64.00;;;;;;5095218;28;20387;-71
2022/04/03 02:51:28;;;;;;;15.13;12.02;;;5.70;63.90;;;;;;5095196;28;20482;-71
2022/04/03 02:53:54;;;;;;;15.93;12.00;;;5.70;64.00;;;;;;5113481;28;20028;-71
2022/04/03 02:56:19;;;;;;;16.55;12.05;;;5.70;64.00;;;;;;5113432;28;20032;-71
2022/04/03 02:58:45;;;;;;;21.95;11.98;;;5.70;64.00;;;;;;5094939;28;20383;-71
2022/04/03 03:01:11;;;;;;;15.73;11.75;;;5.70;64.00;;;;;;5095179;28;20034;-71
2022/04/03 03:03:37;;;;;;;15.18;11.77;;;5.60;64.00;;;;;;5095143;28;20480;-71
2022/04/03 03:06:03;;;;;;;16.70;12.05;;;5.60;64.20;;;;;;5113182;28;20024;-71
2022/04/03 03:08:29;;;;;;;15.32;11.93;;;5.60;64.30;;;;;;5113342;28;20020;-72
2022/04/03 03:10:55;;;;;;;14.13;11.00;;;5.70;64.30;;;;;;5113404;28;20157;-71
2022/04/03 03:13:20;;;;;;;26.67;11.20;;;5.60;64.10;;;;;;5115253;28;20046;-71
2022/04/03 03:15:46;;;;;;;14.23;10.18;;;5.70;64.20;;;;;;5098949;28;20494;-71
2022/04/03 03:18:12;;;;;;;16.05;11.35;;;5.70;64.00;;;;;;5117006;28;20031;-71
2022/04/03 03:20:38;;;;;;;14.95;11.60;;;5.60;63.80;;;;;;5098942;28;20020;-72
2022/04/03 03:23:04;;;;;;;14.70;10.20;;;5.60;63.60;;;;;;5117126;28;20024;-71
2022/04/03 03:25:30;;;;;;;15.13;10.00;;;5.70;63.70;;;;;;5117201;28;20103;-71
2022/04/03 03:27:56;;;;;;;11.85;9.35;;;5.70;63.60;;;;;;5098714;28;20061;-71
2022/04/03 03:30:22;;;;;;;11.93;9.60;;;5.70;63.60;;;;;;5117671;28;20023;-71
2022/04/03 03:32:47;;;;;;;15.57;11.60;;;5.70;63.60;;;;;;5098713;28;20058;-71
2022/04/03 03:35:13;;;;;;;12.55;10.02;;;5.70;64.40;;;;;;5116997;28;20369;-71
2022/04/03 03:37:40;;;;;;;15.00;10.80;;;5.70;63.70;;;;;;5098522;28;20035;-72
2022/04/03 03:40:08;;;;;;;11.73;9.90;;;5.70;63.80;;;;;;5116392;28;20134;-71
2022/04/03 03:42:34;;;;;;;12.15;10.00;;;5.70;64.00;;;;;;5097898;28;20081;-71
2022/04/03 03:45:01;;;;;;;13.55;10.73;;;5.70;63.90;;;;;;5098493;28;20024;-71
2022/04/03 03:47:27;;;;;;;13.85;10.30;;;5.70;64.00;;;;;;5091123;28;20031;-73
2022/04/03 03:49:53;;;;;;;13.30;9.93;;;5.80;64.10;;;;;;5077931;28;20119;-71
2022/04/03 03:52:19;;;;;;;13.07;9.88;;;5.80;63.90;;;;;;5096321;28;20111;-70
2022/04/03 03:54:45;;;;;;;12.20;10.20;;;5.80;63.80;;;;;;5096236;28;20504;-72
2022/04/03 03:57:12;;;;;;;12.63;9.95;;;5.80;63.80;;;;;;5096127;28;20043;-71
2022/04/03 03:59:37;;;;;;;14.43;10.82;;;5.80;63.80;;;;;;5096169;28;20379;-71
2022/04/03 04:02:04;;;;;;;13.52;9.43;;;5.80;63.80;;;;;;5077559;28;20024;-71
2022/04/03 04:04:30;;;;;;;29.73;11.10;;;5.70;63.80;;;;;;5096182;28;20349;-71
2022/04/03 04:06:56;;;;;;;13.20;10.07;;;5.70;63.80;;;;;;5077958;28;20241;-71
2022/04/03 04:09:23;;;;;;;13.75;10.63;;;5.70;63.90;;;;;;5077661;28;20035;-71
2022/04/03 04:11:48;;;;;;;14.60;10.68;;;5.70;64.00;;;;;;5096056;28;20032;-71
2022/04/03 04:14:14;;;;;;;14.10;10.90;;;5.70;64.00;;;;;;5110350;28;20106;-72
2022/04/03 04:16:42;;;;;;;12.15;9.57;;;5.70;64.10;;;;;;5116276;28;20034;-71
2022/04/03 04:19:09;;;;;;;13.23;10.80;;;5.70;64.20;;;;;;5116551;28;20019;-71
2022/04/03 04:21:35;;;;;;;14.60;10.80;;;5.70;64.20;;;;;;5115947;28;20107;-72
2022/04/03 04:24:01;;;;;;;10.88;8.45;;;5.70;64.30;;;;;;5115346;28;20051;-72
2022/04/03 04:26:27;;;;;;;16.15;10.25;;;5.80;64.40;;;;;;5115589;28;20073;-72
2022/04/03 04:28:52;;;;;;;13.18;10.32;;;5.80;64.50;;;;;;5097787;28;20526;-71
2022/04/03 04:31:19;;;;;;;13.88;10.63;;;5.80;64.50;;;;;;5116117;28;20058;-71
2022/04/03 04:33:45;;;;;;;16.50;11.65;;;5.80;64.50;;;;;;5115708;28;20107;-72
2022/04/03 04:36:10;;;;;;;12.85;10.18;;;5.80;64.50;;;;;;5115927;28;20110;-71
2022/04/03 04:38:37;;;;;;;15.32;11.52;;;5.80;64.50;;;;;;5097486;27;20061;-71
2022/04/03 04:41:03;;;;;;;16.52;12.63;;;5.80;64.60;;;;;;5118003;27;20378;-72
2022/04/03 04:43:29;;;;;;;15.73;11.68;;;5.80;64.60;;;;;;5135424;27;20467;-71
2022/04/03 04:45:55;;;;;;;15.93;11.98;;;5.80;64.60;;;;;;5129999;27;20466;-72
2022/04/03 04:48:21;;;;;;;16.55;12.25;;;5.80;64.40;;;;;;5136263;27;20038;-71
2022/04/03 04:50:46;;;;;;;16.25;12.45;;;5.80;64.40;;;;;;5117785;27;20186;-71
2022/04/03 04:53:12;;;;;;;18.30;12.43;;;5.80;64.20;;;;;;5117800;27;20520;-71
2022/04/03 04:55:39;;;;;;;19.10;13.98;;;5.80;64.20;;;;;;5117600;27;20033;-71
2022/04/03 04:58:05;;;;;;;16.35;12.55;;;5.80;64.20;;;;;;5135823;27;20023;-71
2022/04/03 05:00:31;;;;;;;26.05;13.52;;;5.80;64.20;;;;;;5117630;27;20451;-71
2022/04/03 05:02:58;;;;;;;16.00;12.02;;;5.80;64.10;;;;;;5117585;27;20023;-71
2022/04/03 05:05:26;;;;;;;17.42;12.20;;;5.80;64.20;;;;;;5135925;27;20015;-71
2022/04/03 05:07:58;;;;;;;14.95;10.57;;;5.80;64.20;;;;;;5135877;27;20079;-72
2022/04/03 05:10:25;;;;;;;15.43;10.32;;;5.90;64.40;;;;;;5117421;27;20030;-71
2022/04/03 05:12:51;;;;;;;17.17;11.73;;;5.90;64.40;;;;;;5135119;27;20020;-72
2022/04/03 05:15:17;;;;;;;13.63;10.70;;;5.90;64.40;;;;;;5117328;27;20080;-71
2022/04/03 05:17:44;;;;;;;15.48;11.05;;;5.90;64.40;;;;;;5135347;27;20467;-71
2022/04/03 05:20:12;;;;;;;15.88;11.40;;;6.00;64.50;;;;;;5135634;27;20030;-72
2022/04/03 05:22:38;;;;;;;13.77;10.52;;;6.00;64.60;;;;;;5135343;27;20484;-71
2022/04/03 05:25:05;;;;;;;12.55;8.65;;;6.00;64.60;;;;;;5135580;27;20098;-71
2022/04/03 05:27:34;;;;;;;13.20;9.55;;;6.10;64.70;;;;;;5135499;27;20023;-71
2022/04/03 05:30:01;;;;;;;15.05;9.50;;;6.10;64.50;;;;;;5135437;27;20027;-71
2022/04/03 05:32:28;;;;;;;11.75;9.80;;;6.10;64.40;;;;;;5116937;27;20050;-72
2022/04/03 05:34:55;;;;;;;13.38;9.30;;;6.20;64.20;;;;;;5116975;27;20023;-71
2022/04/03 05:37:21;;;;;;;13.05;10.18;;;6.20;64.10;;;;;;5134857;27;20031;-71
2022/04/03 05:39:48;;;;;;;11.55;8.70;;;6.20;63.90;;;;;;5116349;27;20550;-71
2022/04/03 05:42:14;;;;;;;10.85;8.80;;;6.20;63.60;;;;;;5135255;27;20023;-71
2022/04/03 05:44:40;;;;;;;10.63;8.40;;;6.30;63.60;;;;;;5134472;27;20045;-72
2022/04/03 05:47:06;;;;;;;11.00;8.30;;;6.30;63.70;;;;;;5135387;27;20088;-72
2022/04/03 05:49:32;;;;;;;10.85;8.70;;;6.30;63.60;;;;;;5116404;27;20023;-71
2022/04/03 05:51:58;;;;;;;11.27;8.45;;;6.40;63.70;;;;;;5116710;27;20122;-71
2022/04/03 05:54:23;;;;;;;13.73;9.35;;;6.40;63.70;;;;;;5134789;27;20023;-71
2022/04/03 05:56:49;;;;;;;12.65;9.15;;;6.50;63.70;;;;;;5134971;27;20466;-71
2022/04/03 05:59:15;;;;;;;13.20;9.68;;;6.50;63.60;;;;;;5134954;27;20050;-71
2022/04/03 06:01:41;;;;;;;11.48;8.52;;;6.60;63.10;;;;;;5134848;27;20038;-72
2022/04/03 06:04:07;;;;;;;11.15;8.30;;;6.60;63.00;;;;;;5116474;27;20023;-71
2022/04/03 06:06:34;;;;;;;12.43;8.20;;;6.70;63.30;;;;;;5116320;27;20386;-72
2022/04/03 06:08:59;;;;;;;9.55;8.05;;;6.80;63.30;;;;;;5134464;27;20508;-71
2022/04/03 06:11:25;;;;;;;13.57;7.97;;;6.80;63.00;;;;;;5116160;27;20027;-71
2022/04/03 06:13:51;;;;;;;11.52;7.95;;;6.90;62.50;;;;;;5133897;27;20031;-72
2022/04/03 06:16:17;;;;;;;13.23;8.23;;;6.90;62.00;;;;;;5134618;27;20474;-72
2022/04/03 06:18:42;;;;;;;10.07;7.53;;;7.00;61.60;;;;;;5116168;27;20534;-72
2022/04/03 06:21:09;;;;;;;10.55;7.18;;;7.00;61.80;;;;;;5134376;27;20026;-71
2022/04/03 06:23:35;;;;;;;12.60;8.63;;;7.10;62.10;;;;;;5115976;27;20390;-71
2022/04/03 06:26:02;;;;;;;10.77;7.68;;;7.10;61.80;;;;;;5134570;27;20019;-72
2022/04/03 06:28:29;;;;;;;14.15;8.25;;;7.20;61.60;;;;;;5134457;27;20055;-72
2022/04/03 06:30:56;;;;;;;8.82;7.10;;;7.20;61.20;;;;;;5116107;27;20537;-72
2022/04/03 06:33:23;;;;;;;10.02;7.93;;;7.20;60.80;;;;;;5116077;27;20034;-72
2022/04/03 06:35:49;;;;;;;8.80;7.20;;;7.30;60.10;;;;;;5115830;28;20023;-71
2022/04/03 06:38:16;;;;;;;10.18;7.40;;;7.30;60.00;;;;;;5115666;28;20023;-73
2022/04/03 06:40:54;;;;;;;10.35;7.30;;;7.30;60.40;;;;;;5134382;27;20051;-72
2022/04/03 06:43:22;;;;;;;11.50;7.50;;;7.40;60.90;;;;;;5115661;28;20019;-72
2022/04/03 06:45:48;;;;;;;10.40;7.65;;;7.50;61.10;;;;;;5115894;28;20031;-72
2022/04/03 06:48:15;;;;;;;12.55;7.80;;;7.50;61.60;;;;;;5136028;27;20033;-72
2022/04/03 06:50:41;;;;;;;10.55;7.65;;;7.50;60.10;;;;;;5138580;27;20020;-72
2022/04/03 06:53:07;;;;;;;10.60;7.68;;;7.60;60.00;;;;;;5138200;27;20023;-72
2022/04/03 06:55:33;;;;;;;10.45;7.55;;;7.60;60.30;;;;;;5138452;27;20076;-72
2022/04/03 06:57:59;;;;;;;13.93;7.57;;;7.70;60.50;;;;;;5119152;27;20039;-72
2022/04/03 07:00:26;;;;;;;9.50;7.05;;;7.70;60.40;;;;;;5138317;27;20027;-72
2022/04/03 07:02:51;;;;;;;14.00;8.65;;;7.80;60.00;;;;;;5138287;27;20019;-72
2022/04/03 07:05:18;;;;;;;14.13;7.18;;;7.80;59.90;;;;;;5137942;27;20088;-72
2022/04/03 07:07:44;;;;;;;10.02;7.00;;;7.80;59.00;;;;;;5138249;27;20501;-72
2022/04/03 07:10:10;;;;;;;8.68;6.85;;;7.80;58.70;;;;;;5119771;27;20069;-72
2022/04/03 07:12:37;;;;;;;14.20;8.23;;;7.70;58.80;;;;;;5137214;27;20459;-72
2022/04/03 07:15:07;;;;;;;9.00;6.93;;;7.70;58.80;;;;;;5110651;28;20027;-72
2022/04/03 07:17:32;;;;;;;12.80;8.30;;;7.70;58.80;;;;;;5099117;28;20511;-73
2022/04/03 07:19:58;;;;;;;9.45;7.70;;;7.80;59.10;;;;;;5099136;28;20027;-73
2022/04/03 07:22:24;;;;;;;9.00;7.15;;;7.70;58.60;;;;;;5117092;28;20105;-72
2022/04/03 07:24:49;;;;;;;8.35;6.75;;;7.80;58.90;;;;;;5117327;28;20020;-72
2022/04/03 07:27:15;;;;;;;11.52;7.60;;;7.80;59.20;;;;;;5098981;28;20437;-73
2022/04/03 07:29:41;;;;;;;10.40;7.32;;;7.90;59.40;;;;;;5117234;28;20046;-72
2022/04/03 07:32:07;;;;;;;9.35;6.88;;;8.00;59.50;;;;;;5117250;28;20370;-73
2022/04/03 07:34:33;;;;;;;13.00;7.45;;;8.00;59.00;;;;;;5117093;28;20035;-73
2022/04/03 07:36:59;;;;;;;12.98;8.02;;;8.10;59.20;;;;;;5117042;28;20028;-73
2022/04/03 07:39:28;;;;;;;10.00;7.25;;;8.10;58.90;;;;;;5116475;28;20048;-72
2022/04/03 07:41:54;;;;;;;10.85;7.47;;;8.10;58.60;;;;;;5116888;28;20031;-73
2022/04/03 07:44:19;;;;;;;11.27;8.07;;;8.20;58.40;;;;;;5116553;28;20435;-73
2022/04/03 07:46:45;;;;;;;12.20;7.97;;;8.20;58.40;;;;;;5116647;28;20051;-73
2022/04/03 07:49:11;;;;;;;11.63;7.55;;;8.20;58.20;;;;;;5098616;28;20028;-73
2022/04/03 07:51:37;;;;;;;10.05;7.82;;;8.20;58.10;;;;;;5098492;28;20459;-73
2022/04/03 07:54:03;;;;;;;11.18;8.43;;;8.20;58.00;;;;;;5098273;28;20534;-73
2022/04/03 07:56:30;;;;;;;9.70;8.07;;;8.30;58.30;;;;;;5098229;28;20028;-73
2022/04/03 07:58:56;;;;;;;11.63;7.80;;;8.30;58.10;;;;;;5098016;28;20020;-73
2022/04/03 08:01:22;;;;;;;11.48;8.02;;;8.30;58.20;;;;;;5098238;28;20027;-73
2022/04/03 08:03:48;;;;;;;11.30;7.95;;;8.30;57.80;;;;;;5116293;28;20019;-73
2022/04/03 08:06:14;;;;;;;10.02;7.75;;;8.30;57.60;;;;;;5116573;28;20165;-73
2022/04/03 08:08:41;;;;;;;11.60;7.97;;;8.30;57.30;;;;;;5098207;28;20032;-74
2022/04/03 08:11:08;;;;;;;13.68;8.60;;;8.30;57.40;;;;;;5116153;28;20069;-74
2022/04/03 08:13:33;;;;;;;9.32;7.20;;;8.30;57.10;;;;;;5115984;28;20031;-74
2022/04/03 08:16:01;;;;;;;11.93;8.73;;;8.30;57.40;;;;;;5115543;28;20512;-73
2022/04/03 08:18:27;;;;;;;13.07;8.60;;;8.30;57.60;;;;;;5116356;28;20432;-73
2022/04/03 08:20:53;;;;;;;11.38;8.57;;;8.40;57.30;;;;;;5115945;28;20020;-73
2022/04/03 08:23:19;;;;;;;13.18;9.00;;;8.40;57.70;;;;;;5115917;28;20032;-73
2022/04/03 08:25:45;;;;;;;12.88;9.38;;;8.50;57.60;;;;;;5116162;28;20081;-74
2022/04/03 08:28:11;;;;;;;12.25;8.93;;;8.50;57.50;;;;;;5097822;28;20038;-74
2022/04/03 08:30:38;;;;;;;11.13;7.63;;;8.60;57.20;;;;;;5116003;28;20027;-74
2022/04/03 08:33:05;;;;;;;9.48;7.85;;;8.60;56.70;;;;;;5115921;28;20020;-74
2022/04/03 08:35:32;;;;;;;11.50;7.90;;;8.70;57.20;;;;;;5097648;28;20032;-74
2022/04/03 08:37:59;;;;;;;12.50;8.18;;;8.80;56.80;;;;;;5097485;28;20134;-74
2022/04/03 08:40:26;;;;;;;12.38;8.50;;;8.90;57.20;;;;;;5115142;28;20040;-74
2022/04/03 08:42:54;;;;;;;14.90;9.70;;;9.00;57.70;;;;;;5097231;28;20027;-73
2022/04/03 08:45:20;;;;;;;9.90;7.75;;;9.00;56.70;;;;;;5097441;28;20024;-74
2022/04/03 08:47:49;;;;;;;11.73;7.72;;;9.00;56.10;;;;;;5097352;28;20027;-74
2022/04/03 08:50:16;;;;;;;13.35;8.38;;;9.10;56.10;;;;;;5115420;28;20023;-75
2022/04/03 08:52:46;;;;;;;10.57;7.70;;;9.00;56.10;;;;;;5097274;28;20481;-74
2022/04/03 08:55:13;;;;;;;11.75;8.68;;;9.00;56.10;;;;;;5115669;28;20022;-74
2022/04/03 08:57:38;;;;;;;13.20;8.50;;;9.00;56.40;;;;;;5115457;28;20395;-74
2022/04/03 09:00:06;;;;;;;10.88;8.13;;;9.00;56.70;;;;;;5115507;28;20016;-74
2022/04/03 09:02:32;;;;;;;10.98;8.10;;;9.00;57.00;;;;;;5080447;28;20042;-74
2022/04/03 09:04:58;;;;;;;19.00;8.52;;;8.90;56.60;;;;;;5115448;28;20027;-74
2022/04/03 09:07:24;;;;;;;10.80;7.97;;;9.00;56.80;;;;;;5115374;28;20038;-75
2022/04/03 09:10:06;;;;;;;10.82;7.95;;;9.10;56.90;;;;;;5096984;28;20050;-75
2022/04/03 09:12:32;;;;;;;12.57;9.23;;;9.10;56.90;;;;;;5114779;28;20396;-74
2022/04/03 09:14:59;;;;;;;10.48;8.75;;;9.20;57.70;;;;;;5115328;28;20024;-74
2022/04/03 09:17:38;;;;;;;10.05;8.88;;;9.30;57.40;;;;;;5096643;28;20035;-75
2022/04/03 09:20:09;;;;;;;11.93;7.85;;;9.40;57.20;;;;;;5096874;28;20048;-74
2022/04/03 09:22:37;;;;;;;13.63;8.30;;;9.60;56.80;;;;;;5096620;28;20371;-74
2022/04/03 09:25:09;;;;;;;8.85;7.43;;;9.70;56.40;;;;;;5096643;28;20031;-75
2022/04/03 09:27:49;;;;;;;10.30;7.78;;;9.90;57.60;;;;;;5114669;28;20467;-75
2022/04/03 09:30:16;;;;;;;14.45;8.55;;;10.00;57.00;;;;;;5114979;28;20042;-75
2022/04/03 09:32:51;;;;;;;9.93;8.43;;;10.20;55.90;;;;;;5114795;28;20053;-74
2022/04/03 09:35:19;;;;;;;10.15;7.88;;;10.30;54.90;;;;;;5114906;28;20390;-75
2022/04/03 09:38:13;;;;;;;11.70;8.00;;;10.40;54.80;;;;;;5114621;28;20036;-75
2022/04/03 09:40:51;;;;;;;11.98;8.35;;;10.50;54.40;;;;;;5076027;28;20056;-75
2022/04/03 09:43:25;;;;;;;10.35;8.75;;;10.50;53.30;;;;;;5102196;28;20382;-75
2022/04/03 09:45:54;;;;;;;18.35;8.32;;;10.60;52.90;;;;;;5096280;28;20031;-76
2022/04/03 09:48:23;;;;;;;11.38;8.48;;;10.70;54.40;;;;;;5096223;28;20027;-76
2022/04/03 09:51:08;;;;;;;14.40;8.18;;;10.70;53.20;;;;;;5095896;28;20030;-77
2022/04/03 09:53:46;;;;;;;10.02;7.47;;;10.80;53.10;;;;;;5096107;28;20413;-77
2022/04/03 09:56:34;;;;;;;11.27;7.78;;;10.90;52.40;;;;;;5095697;28;20074;-77
2022/04/03 09:59:05;;;;;;;8.43;6.55;;;11.00;53.30;;;;;;5114785;28;20019;-77
2022/04/03 10:01:42;;;;;;;10.80;7.40;;;11.00;52.70;;;;;;5114109;28;20023;-77
2022/04/03 10:04:15;;;;;;;8.95;7.45;;;11.10;51.90;;;;;;5114630;28;20521;-77
2022/04/03 10:06:42;;;;;;;8.98;6.68;;;11.10;50.70;;;;;;5096039;28;20371;-77
2022/04/03 10:09:14;;;;;;;7.60;6.57;;;11.00;49.70;;;;;;5113926;28;20459;-77
2022/04/03 10:11:41;;;;;;;9.48;6.90;;;10.90;49.30;;;;;;5113863;28;20489;-77
2022/04/03 10:14:09;;;;;;;8.82;6.45;;;10.80;50.30;;;;;;5095680;28;20035;-77
2022/04/03 10:16:35;;;;;;;12.10;6.90;;;10.70;50.20;;;;;;5114180;28;20114;-77
2022/04/03 10:19:01;;;;;;;12.82;6.97;;;10.60;49.40;;;;;;5113634;28;20051;-77
2022/04/03 10:21:37;;;;;;;8.77;6.43;;;10.50;49.80;;;;;;5095765;28;20082;-77
2022/04/03 10:24:17;;;;;;;9.00;5.68;;;10.40;50.70;;;;;;5114029;28;20080;-77
2022/04/03 10:26:51;;;;;;;7.63;6.32;;;10.30;50.30;;;;;;5113947;28;20040;-77
2022/04/03 10:29:17;;;;;;;11.98;5.72;;;10.30;49.70;;;;;;5095719;28;20023;-77
2022/04/03 10:31:55;;;;;;;7.55;6.00;;;10.30;49.90;;;;;;5095460;28;20127;-76
2022/04/03 10:34:21;;;;;;;9.20;6.47;;;10.30;50.50;;;;;;5095489;28;20020;-76
2022/04/03 10:36:49;;;;;;;11.38;6.15;;;10.30;51.00;;;;;;5113814;28;20032;-76
2022/04/03 10:39:24;;;;;;;9.43;6.90;;;10.40;50.90;;;;;;5097208;28;20058;-77
2022/04/03 10:41:49;;;;;;;10.25;6.65;;;10.50;52.30;;;;;;5112521;28;20032;-76
2022/04/03 10:44:21;;;;;;;9.25;6.50;;;10.60;52.30;;;;;;5115127;28;20028;-77
2022/04/03 10:47:02;;;;;;;10.90;6.57;;;10.70;50.90;;;;;;5115876;28;20118;-77
2022/04/03 10:49:59;;;;;;;8.70;6.90;;;10.80;51.10;;;;;;5134058;28;20348;-76
2022/04/03 10:52:26;;;;;;;11.52;7.28;;;10.80;49.60;;;;;;5115851;28;20028;-76
2022/04/03 10:54:55;;;;;;;10.88;7.13;;;10.90;50.10;;;;;;5115732;28;20455;-75
2022/04/03 10:57:50;;;;;;;7.93;6.55;;;10.90;50.10;;;;;;5133847;28;20033;-75
2022/04/03 11:00:16;;;;;;;9.52;6.93;;;10.90;50.60;;;;;;5115779;28;20051;-75
2022/04/03 11:02:51;;;;;;;8.55;6.57;;;10.90;49.10;;;;;;5133948;28;20038;-74
2022/04/03 11:05:29;;;;;;;;;;;11.00;50.70;;;;;;5116205;28;20027;-74
2022/04/03 11:08:00;;;;;;;10.55;6.50;;;11.10;51.80;;;;;;5133931;28;19903;-73
2022/04/03 11:10:54;;;;;;;8.45;6.95;;;11.10;49.00;;;;;;5134046;28;20028;-70
2022/04/03 11:13:24;;;;;;;11.25;6.03;;;11.20;49.00;;;;;;5114959;28;20023;-69
2022/04/03 11:16:08;;;;;;;8.98;6.13;;;11.30;49.80;;;;;;5115611;28;20031;-68
2022/04/03 11:18:36;;;;;;;7.35;5.75;;;11.30;49.30;;;;;;5133709;28;20531;-68
2022/04/03 11:21:36;;;;;;;7.95;5.45;;;11.40;49.10;;;;;;5133656;28;20102;-68
2022/04/03 11:24:04;;;;;;;7.15;5.85;;;11.40;49.40;;;;;;5115534;28;20026;-67
2022/04/03 11:26:30;;;;;;;7.22;5.38;;;11.30;48.30;;;;;;5115607;28;20386;-68
2022/04/03 11:28:57;;;;;;;7.82;5.10;;;11.30;48.20;;;;;;5115506;28;20023;-67
2022/04/03 11:31:22;;;;;;;9.63;6.00;;;11.10;48.40;;;;;;5133919;28;20030;-67
2022/04/03 11:33:49;;;;;;;8.18;5.65;;;11.10;48.70;;;;;;5116111;27;20027;-67
2022/04/03 11:36:26;;;;;;;7.68;5.40;;;11.00;49.30;;;;;;5137643;27;20087;-67
2022/04/03 11:38:53;;;;;;;14.32;6.25;;;10.90;48.50;;;;;;5118893;27;20076;-67
2022/04/03 11:41:25;;;;;;;7.85;6.13;;;10.80;48.70;;;;;;5137451;27;20427;-67
2022/04/03 11:44:01;;;;;;;7.78;5.55;;;10.70;48.90;;;;;;5136902;27;20076;-67
2022/04/03 11:46:37;;;;;;;8.93;5.85;;;10.70;49.50;;;;;;5117192;27;20035;-67
2022/04/03 11:49:16;;;;;;;6.57;5.47;;;10.60;50.30;;;;;;5116917;28;20358;-67
2022/04/03 11:51:44;;;;;;;7.60;5.50;;;10.70;50.70;;;;;;5116857;28;20026;-67
2022/04/03 11:54:10;;;;;;;10.63;5.40;;;10.90;50.90;;;;;;5116786;28;20077;-67
2022/04/03 11:56:37;;;;;;;9.00;5.78;;;11.00;50.50;;;;;;5116901;28;20401;-66
2022/04/03 11:59:05;;;;;;;9.45;6.63;;;11.20;51.00;;;;;;5116671;28;20069;-66
2022/04/03 12:01:35;;;;;;;7.45;5.57;;;11.30;49.30;;;;;;5098277;28;20510;-66
2022/04/03 12:04:13;;;;;;;7.15;5.57;;;11.40;50.80;;;;;;5098393;28;20031;-66
2022/04/03 12:06:43;;;;;;;7.53;5.20;;;11.60;50.70;;;;;;5116639;28;20032;-66
2022/04/03 12:09:15;;;;;;;7.75;5.28;;;11.80;50.80;;;;;;5116252;28;20024;-66
2022/04/03 12:11:45;;;;;;;6.88;5.43;;;11.90;50.20;;;;;;5098259;28;20027;-66
2022/04/03 12:14:12;;;;;;;13.18;6.25;;;12.10;49.30;;;;;;5133209;27;20019;-65
2022/04/03 12:16:39;;;;;;;7.68;5.10;;;12.20;48.70;;;;;;5118409;27;20031;-66
2022/04/03 12:19:14;;;;;;;7.78;5.55;;;12.40;49.50;;;;;;5137275;27;20211;-66
2022/04/03 12:21:42;;;;;;;5.70;4.40;;;12.60;50.60;;;;;;5136938;27;20020;-66
2022/04/03 12:24:12;;;;;;;5.90;4.45;;;12.80;49.00;;;;;;5118321;27;20110;-67
2022/04/03 12:26:43;;;;;;;5.00;4.25;;;12.80;46.20;;;;;;5137079;27;20031;-66
2022/04/03 12:29:09;;;;;;;9.98;6.05;;;12.80;46.40;;;;;;5137067;27;20026;-66
2022/04/03 12:31:35;;;;;;;5.95;5.20;;;12.60;45.30;;;;;;5118223;27;20114;-66
2022/04/03 12:34:15;;;;;;;6.32;5.15;;;12.30;45.30;;;;;;5136555;27;20038;-66
2022/04/03 12:36:46;;;;;;;6.18;5.00;;;12.10;45.90;;;;;;5136308;27;20152;-66
2022/04/03 12:39:38;;;;;;;7.53;4.78;;;11.80;46.40;;;;;;5117850;27;20043;-66
2022/04/03 12:42:12;;;;;;;7.72;5.47;;;11.50;46.70;;;;;;5135731;27;20027;-67
2022/04/03 12:45:02;;;;;;;7.67;5.23;;;11.30;48.10;;;;;;5136383;27;20027;-66
2022/04/03 12:47:33;;;;;;;7.40;5.13;;;11.20;48.50;;;;;;5117538;27;20518;-67